Bloomfield Township, MI (48301)

1:43 PM EDT on October 02, 2014 (GMT -0400)
Walnut Lake Boat Club | Change Station
CLOSE
Current Station
Personal Weather Station
Location: West Bloomfield, MI
Elevation: 925 ft
Nearby Weather Stations

Elev 925 ft 42.56 °N, 83.32 °W | Updated 7 seconds ago

Overcast
Overcast
68.4 °F
Feels Like 68.4 °F
N
0.0
Wind Variable Wind from ESE
Gusts 6.0 mph

Today
High -- | Low -- °F
--% Chance of Precip.
Yesterday
High -- | Low -- °F
Precip. -- in
7:31 AM 7:12 PM
First Quarter, 60% visible
Pressure 30.00 in
Visibility 10.0 miles
Clouds Clear
Dew Point 59 °F
Humidity 72%
Rainfall 0.00 in
Snow Depth Not available.
UV 6 out of 12
Pollen 2.60 out of 12
Ozone Good
PM2.5 Moderate
Flu Activity Not available.
METAR KVLL 021735Z AUTO 10007KT 10SM CLR 21/13 A3000 RMK AO2 T02110130

More Conditions Fewer Conditions

Pressure 30.00 in
Visibility 10.0 miles
Clouds Clear
Dew Point 59 °F
Humidity 72%
Rainfall 0.00 in
Snow Depth Not available.
UV 6 out of 12
Pollen 2.60 out of 12
Ozone Good
PM2.5 Moderate
Flu Activity Not available.
METAR KVLL 021735Z AUTO 10007KT 10SM CLR 21/13 A3000 RMK AO2 T02110130

More Conditions Fewer Conditions

10-Day Weather Forecast

Almanac

Astronomy

Oct. 02, 2014 Rise Set
Actual Time 7:31 AM EDT 7:12 PM EDT
Civil Twilight 7:03 AM EDT 7:40 PM EDT
Nautical Twilight 6:30 AM EDT 8:13 PM EDT
Astronomical Twilight 5:57 AM EDT 8:46 PM EDT
Moon 3:24 PM EDT 12:40 AM EDT
Length of Visible Light 12h 37m
Length of Day
11h 41m
Tomorrow will be 2m 51s shorter.
First Quarter, 60% of the Moon is Illuminated
Today
First Quarter
Oct 8
Full
Oct 15
Last Quarter
Oct 23
New
Oct 30
First Quarter

Today's Extremes

State Highs State Lows

Community

WunderPhotos

Upload Photos

1,758,312 photos uploaded!

Nearby

Air Quality

  Air Quality AQ Index Pollutant
Yesterday Good
PM10
Yesterday Good
OZONE
Current Moderate
PM2.5
Current Good
OZONE
Thursday Moderate
PM2.5
Thursday Good
OZONE
Friday Good
OZONE
Friday Good
PM2.5
Saturday Good
OZONE
Saturday Good
PM2.5

Snow Depth

Station Depth Elevation
No new snow has been reported.

Earthquake Activity

City Distance Mag. Time & Date
No recent earthquake activity has been reported nearby.
Minimum magnitude displayed is 2.5.

Coastal Water Temperatures

Place Temperature
Marblehead, OH 64.9 °F

Nearby Weather Stations